Time;durP1;ratioP1;P1;durP2;ratioP2;P2;SDS_P1;SDS_P2;PMS_P1;PMS_P2;Temp;Humidity;BMP_temperature;BMP_pressure;BME280_temperature;BME280_humidity;BME280_pressure;Samples;Min_cycle;Max_cycle;Signal;HPM_P1;HPM_P2
2022/10/26 00:01:28;;;;;;;;;5.33;5.33;;;;;17.58;73.28;100448.78;5020986;28;45499;-62
2022/10/26 00:03:55;;;;;;;;;5.67;5.33;;;;;17.51;73.16;100431.47;5029031;28;45315;-63
2022/10/26 00:06:24;;;;;;;;;4.00;4.00;;;;;17.46;73.27;100438.25;5038797;28;45307;-63
2022/10/26 00:08:51;;;;;;;;;4.00;4.00;;;;;17.40;73.05;100439.63;5021580;28;45399;-63
2022/10/26 00:11:18;;;;;;;;;9.00;5.00;;;;;17.33;73.18;100431.25;5017759;28;46498;-63
2022/10/26 00:13:45;;;;;;;;;7.00;4.00;;;;;17.46;73.29;100443.63;5041300;27;45473;-63
2022/10/26 00:16:12;;;;;;;;;5.00;5.00;;;;;17.45;73.35;100444.59;5036312;28;45445;-62
2022/10/26 00:18:38;;;;;;;;;5.33;4.33;;;;;17.46;72.70;100440.94;5020131;28;45257;-62
2022/10/26 00:21:05;;;;;;;;;4.33;3.00;;;;;17.44;73.03;100441.03;5037381;28;45235;-61
2022/10/26 00:23:31;;;;;;;;;7.00;5.00;;;;;17.48;72.59;100447.88;5038455;28;45447;-62
2022/10/26 00:25:57;;;;;;;;;3.00;3.00;;;;;17.42;72.49;100432.25;5036662;28;45471;-63
2022/10/26 00:28:23;;;;;;;;;3.67;3.67;;;;;17.46;72.44;100438.25;5019102;28;45542;-63
2022/10/26 00:30:49;;;;;;;;;4.00;3.33;;;;;17.45;72.64;100437.41;5021011;28;45961;-63
2022/10/26 00:33:14;;;;;;;;;4.33;4.33;;;;;17.39;72.37;100433.38;5037802;28;45437;-62
2022/10/26 00:35:40;;;;;;;;;3.67;3.67;;;;;17.46;72.41;100439.09;5019263;28;45362;-62
2022/10/26 00:38:05;;;;;;;;;5.00;4.00;;;;;17.48;72.04;100437.13;5031086;28;45601;-62
2022/10/26 00:40:31;;;;;;;;;3.33;3.33;;;;;17.47;72.07;100440.81;5038275;28;45382;-63
2022/10/26 00:42:56;;;;;;;;;5.00;5.00;;;;;17.42;72.32;100434.94;5032231;28;45431;-62
2022/10/26 00:45:25;;;;;;;;;4.00;4.00;;;;;17.45;72.05;100448.16;5025721;28;45320;-63
2022/10/26 00:48:04;;;;;;;;;4.00;4.00;;;;;17.47;72.29;100456.94;5026510;28;45438;-63
2022/10/26 00:50:35;;;;;;;;;3.67;3.67;;;;;17.47;72.09;100446.19;5021623;28;46499;-63
2022/10/26 00:53:03;;;;;;;;;5.33;4.33;;;;;17.48;72.32;100442.50;5016968;28;45373;-66
2022/10/26 00:55:36;;;;;;;;;5.67;4.00;;;;;17.47;71.85;100448.00;5018397;28;45449;-63
2022/10/26 00:58:04;;;;;;;;;5.33;3.33;;;;;17.47;71.97;100451.56;5018385;28;45471;-63
2022/10/26 01:00:30;;;;;;;;;5.33;3.33;;;;;17.45;71.87;100441.91;5039292;28;46028;-63
2022/10/26 01:02:58;;;;;;;;;2.67;2.33;;;;;17.48;72.32;100464.00;5037527;28;45508;-63
2022/10/26 01:05:25;;;;;;;;;5.67;5.00;;;;;17.48;72.11;100469.38;5053728;28;45296;-64
2022/10/26 01:07:52;;;;;;;;;5.00;5.00;;;;;17.48;72.21;100477.47;5020128;28;45423;-64
2022/10/26 01:10:18;;;;;;;;;6.00;3.00;;;;;17.44;72.05;100470.63;5018371;28;46386;-64
2022/10/26 01:12:44;;;;;;;;;6.00;5.00;;;;;17.45;71.97;100480.41;5015968;28;45585;-62
2022/10/26 01:15:10;;;;;;;;;5.67;2.33;;;;;17.47;72.20;100489.19;5034896;28;45495;-61
2022/10/26 01:17:45;;;;;;;;;5.00;4.00;;;;;17.47;72.45;100480.28;5036639;28;45436;-62
2022/10/26 01:20:13;;;;;;;;;3.33;3.33;;;;;17.48;71.99;100485.53;5037947;28;45318;-63
2022/10/26 01:23:00;;;;;;;;;4.00;4.00;;;;;17.48;71.77;100484.66;5051962;28;45333;-63
2022/10/26 01:25:48;;;;;;;;;5.00;5.00;;;;;17.51;71.83;100489.78;5018247;28;45421;-64
2022/10/26 01:28:54;;;;;;;;;3.33;2.67;;;;;17.50;71.84;100488.94;4998128;28;45461;-64
2022/10/26 01:31:32;;;;;;;;;3.00;3.00;;;;;17.45;71.90;100477.72;5005660;28;45869;-63
2022/10/26 01:34:17;;;;;;;;;2.00;2.00;;;;;17.50;71.79;100486.22;5032030;28;45454;-64
2022/10/26 01:36:51;;;;;;;;;6.00;4.00;;;;;17.50;71.90;100478.16;5037400;28;45250;-63
2022/10/26 01:39:28;;;;;;;;;6.00;3.00;;;;;17.50;72.10;100488.06;5037468;28;45297;-63
2022/10/26 01:42:00;;;;;;;;;4.67;3.33;;;;;17.46;72.11;100484.81;5013421;28;46682;-63
2022/10/26 01:44:32;;;;;;;;;5.00;4.00;;;;;17.39;72.29;100489.84;4997105;28;45435;-64
2022/10/26 01:46:58;;;;;;;;;6.00;4.33;;;;;17.35;72.78;100487.56;4997150;28;45422;-64
2022/10/26 01:49:33;;;;;;;;;5.67;4.67;;;;;17.37;72.79;100494.50;5017297;28;45468;-64
2022/10/26 01:51:58;;;;;;;;;10.67;5.00;;;;;17.39;72.61;100507.81;5017383;28;45454;-63
2022/10/26 01:54:24;;;;;;;;;5.00;5.00;;;;;17.39;72.72;100505.13;5017808;28;45450;-64
2022/10/26 01:56:52;;;;;;;;;7.00;4.67;;;;;17.39;72.94;100503.28;5017021;28;45461;-63
2022/10/26 01:59:37;;;;;;;;;7.67;6.33;;;;;17.40;72.93;100504.13;5019936;28;45656;-64
2022/10/26 02:02:29;;;;;;;;;6.00;4.67;;;;;17.43;73.04;100503.00;5016885;28;45454;-64
2022/10/26 02:05:09;;;;;;;;;4.00;4.00;;;;;17.44;72.98;100497.50;5014795;28;45466;-64
2022/10/26 02:07:40;;;;;;;;;7.00;5.00;;;;;17.45;72.94;100504.63;5014570;28;45467;-63
2022/10/26 02:10:24;;;;;;;;;6.00;6.00;;;;;17.44;73.03;100516.31;5017308;28;45332;-62
2022/10/26 02:13:30;;;;;;;;;6.67;6.67;;;;;17.45;72.96;100512.69;5035621;28;47273;-64
2022/10/26 02:16:24;;;;;;;;;8.00;5.33;;;;;17.47;72.56;100520.59;5005977;28;45504;-63
2022/10/26 02:19:01;;;;;;;;;1.33;0.67;;;;;17.47;73.00;100518.78;5017438;28;45458;-63
2022/10/26 02:21:35;;;;;;;;;3.00;3.00;;;;;17.47;72.53;100521.47;5031167;28;45503;-63
2022/10/26 02:24:03;;;;;;;;;6.33;5.00;;;;;17.47;72.78;100531.38;5025608;28;45469;-63
2022/10/26 02:26:31;;;;;;;;;6.00;5.00;;;;;17.48;72.64;100527.69;5022904;28;45344;-62
2022/10/26 02:29:02;;;;;;;;;4.67;4.00;;;;;17.47;72.85;100521.47;5052139;28;45472;-63
2022/10/26 02:31:29;;;;;;;;;3.00;3.00;;;;;17.49;72.70;100521.31;5029303;28;45395;-63
2022/10/26 02:33:58;;;;;;;;;3.00;3.00;;;;;17.51;72.53;100520.19;5017432;28;45324;-62
2022/10/26 02:36:28;;;;;;;;;3.00;3.00;;;;;17.48;72.51;100523.16;5017210;28;45529;-63
2022/10/26 02:38:56;;;;;;;;;4.33;4.33;;;;;17.51;72.87;100536.34;5027408;28;45240;-66
2022/10/26 02:41:24;;;;;;;;;5.67;5.67;;;;;17.49;72.49;100522.19;5036909;28;45224;-63
2022/10/26 02:43:59;;;;;;;;;3.33;3.33;;;;;17.51;72.48;100533.66;5031603;28;46545;-64
2022/10/26 02:46:27;;;;;;;;;3.67;3.67;;;;;17.52;72.67;100534.50;5037437;28;45331;-64
2022/10/26 02:48:52;;;;;;;;;3.00;3.00;;;;;17.53;72.37;100534.38;5035418;28;45293;-64
2022/10/26 02:51:33;;;;;;;;;4.00;4.00;;;;;17.54;72.58;100536.06;5020347;28;45645;-63
2022/10/26 02:54:22;;;;;;;;;3.33;3.00;;;;;17.57;72.59;100532.25;5025159;28;45465;-66
2022/10/26 02:56:56;;;;;;;;;3.33;3.33;;;;;17.57;72.08;100535.78;5032795;28;45516;-63
2022/10/26 02:59:26;;;;;;;;;2.67;2.67;;;;;17.59;72.43;100543.75;5020941;28;45328;-64
2022/10/26 03:01:52;;;;;;;;;3.33;3.33;;;;;17.60;72.28;100532.88;5038515;28;45349;-63
2022/10/26 03:04:18;;;;;;;;;3.33;2.67;;;;;17.64;72.06;100533.44;5028822;28;46251;-63
2022/10/26 03:06:54;;;;;;;;;3.67;3.67;;;;;17.66;71.92;100532.31;5017049;28;45375;-61
2022/10/26 03:09:20;;;;;;;;;4.00;4.00;;;;;17.67;71.70;100522.41;5021923;28;45411;-63
2022/10/26 03:11:45;;;;;;;;;4.33;3.67;;;;;17.72;71.31;100530.13;5032932;28;45510;-63
2022/10/26 03:14:10;;;;;;;;;4.00;3.67;;;;;17.71;71.73;100528.41;5008869;28;45532;-63
2022/10/26 03:16:36;;;;;;;;;3.67;3.67;;;;;17.74;71.54;100528.16;5012283;28;45413;-63
2022/10/26 03:19:01;;;;;;;;;3.00;3.00;;;;;17.76;71.47;100526.19;5021252;28;46152;-63
2022/10/26 03:21:27;;;;;;;;;3.00;3.00;;;;;17.76;71.08;100523.50;5016158;28;45526;-64
2022/10/26 03:23:53;;;;;;;;;2.00;2.00;;;;;17.78;71.49;100535.81;5015628;28;45147;-64
2022/10/26 03:26:18;;;;;;;;;3.33;3.00;;;;;17.74;71.44;100536.22;5015999;28;45240;-62
2022/10/26 03:28:44;;;;;;;;;3.67;3.33;;;;;17.78;71.44;100540.34;5029275;28;45330;-63
2022/10/26 03:31:09;;;;;;;;;2.67;2.00;;;;;17.77;71.29;100549.41;5051249;28;45576;-64
2022/10/26 03:33:35;;;;;;;;;3.67;3.67;;;;;17.75;71.14;100557.59;5029534;28;45489;-63
2022/10/26 03:36:00;;;;;;;;;2.00;2.00;;;;;17.71;71.44;100561.56;5034683;28;45272;-65
2022/10/26 03:38:26;;;;;;;;;3.00;3.00;;;;;17.71;71.56;100560.69;5035790;28;45312;-64
2022/10/26 03:40:51;;;;;;;;;4.00;3.00;;;;;17.60;71.52;100548.16;5031793;28;45599;-64
2022/10/26 03:43:17;;;;;;;;;3.33;2.00;;;;;17.65;71.59;100560.19;5014138;28;46220;-65
2022/10/26 03:45:43;;;;;;;;;3.67;3.67;;;;;17.66;71.71;100564.59;5014844;28;45440;-64
2022/10/26 03:48:08;;;;;;;;;3.50;3.50;;;;;17.64;71.89;100577.31;5030498;28;45363;-64
2022/10/26 03:50:34;;;;;;;;;2.00;2.00;;;;;17.57;72.05;100570.75;5034709;28;45715;-64
2022/10/26 03:52:59;;;;;;;;;1.33;1.33;;;;;17.58;71.96;100572.50;5020437;28;45827;-65
2022/10/26 03:55:24;;;;;;;;;3.33;3.00;;;;;17.56;71.92;100593.25;5024641;28;45373;-64
2022/10/26 03:57:50;;;;;;;;;4.33;3.67;;;;;17.51;72.26;100591.94;5029757;28;45463;-64
2022/10/26 04:00:16;;;;;;;;;3.00;3.00;;;;;17.50;72.19;100593.78;5014024;28;45643;-63
2022/10/26 04:02:45;;;;;;;;;3.67;3.67;;;;;17.51;72.42;100598.19;5015548;28;46314;-64
2022/10/26 04:05:11;;;;;;;;;3.00;2.00;;;;;17.46;72.13;100600.41;5014046;28;45294;-65
2022/10/26 04:07:36;;;;;;;;;3.00;3.00;;;;;17.47;72.48;100601.28;5029477;28;45360;-64
2022/10/26 04:10:03;;;;;;;;;4.33;3.00;;;;;17.39;72.72;100600.06;5039038;28;45543;-64
2022/10/26 04:12:28;;;;;;;;;3.00;3.00;;;;;17.44;72.83;100607.72;5037468;28;47207;-65
2022/10/26 04:14:56;;;;;;;;;5.00;2.00;;;;;17.43;72.38;100610.56;5028180;28;45473;-64
2022/10/26 04:17:21;;;;;;;;;3.00;3.00;;;;;17.31;72.81;100590.94;5019087;28;45391;-63
2022/10/26 04:19:47;;;;;;;;;3.00;3.00;;;;;17.31;72.34;100599.00;5019004;28;45474;-63
2022/10/26 04:22:13;;;;;;;;;4.33;3.00;;;;;17.38;72.46;100619.88;5018054;28;46253;-62
2022/10/26 04:24:38;;;;;;;;;3.00;3.00;;;;;17.36;72.74;100632.59;5028486;28;45336;-63
2022/10/26 04:27:04;;;;;;;;;4.00;2.00;;;;;17.26;72.83;100625.41;5038928;28;45466;-63
2022/10/26 04:29:29;;;;;;;;;2.33;2.33;;;;;17.29;72.76;100625.16;5038098;28;45275;-64
2022/10/26 04:31:55;;;;;;;;;3.00;2.00;;;;;17.28;72.95;100634.19;5018795;28;46207;-63
2022/10/26 04:34:20;;;;;;;;;2.33;1.00;;;;;17.28;72.77;100635.06;5033831;28;45400;-64
2022/10/26 04:36:45;;;;;;;;;3.00;3.00;;;;;17.28;72.70;100639.56;5020265;28;45257;-65
2022/10/26 04:39:11;;;;;;;;;2.00;2.00;;;;;17.27;72.69;100649.47;5019814;28;45464;-63
2022/10/26 04:41:37;;;;;;;;;3.00;1.67;;;;;17.25;72.94;100640.69;5032689;28;46908;-63
2022/10/26 04:44:02;;;;;;;;;0.00;0.00;;;;;17.16;73.17;100632.53;5039849;28;45493;-63
2022/10/26 04:46:28;;;;;;;;;3.00;3.00;;;;;17.24;73.03;100655.13;5038488;28;45367;-65
2022/10/26 04:48:53;;;;;;;;;3.00;3.00;;;;;17.23;72.67;100652.56;5032837;28;45602;-64
2022/10/26 04:51:19;;;;;;;;;3.33;3.33;;;;;17.24;73.02;100670.38;5020531;28;46330;-65
2022/10/26 04:53:44;;;;;;;;;5.67;5.67;;;;;17.20;72.78;100664.41;5018978;28;45376;-64
2022/10/26 04:56:09;;;;;;;;;3.67;3.67;;;;;17.21;72.93;100676.03;5022545;28;45979;-64
2022/10/26 04:58:35;;;;;;;;;2.33;2.33;;;;;17.23;72.88;100685.66;5018760;28;45249;-64
2022/10/26 05:01:01;;;;;;;;;4.00;2.00;;;;;17.21;72.78;100692.16;5022700;28;45477;-64
2022/10/26 05:03:27;;;;;;;;;4.00;3.00;;;;;17.20;72.94;100701.19;5037867;28;45295;-62
2022/10/26 05:05:52;;;;;;;;;3.00;1.33;;;;;17.19;72.96;100700.34;5033559;28;45244;-63
2022/10/26 05:08:18;;;;;;;;;2.67;2.67;;;;;17.18;72.96;100703.13;5018343;28;45586;-62
2022/10/26 05:10:48;;;;;;;;;3.00;2.00;;;;;17.20;72.79;100706.56;5015350;28;47346;-63
2022/10/26 05:13:14;;;;;;;;;3.00;2.00;;;;;17.20;73.19;100706.56;5012819;28;45633;-63
2022/10/26 05:15:39;;;;;;;;;2.00;2.00;;;;;17.19;73.07;100712.91;5002738;28;45280;-62
2022/10/26 05:18:05;;;;;;;;;3.33;3.00;;;;;17.20;72.94;100711.94;5032075;28;45523;-62
2022/10/26 05:20:34;;;;;;;;;4.00;2.33;;;;;17.18;73.17;100713.88;5036245;28;45445;-63
2022/10/26 05:23:09;;;;;;;;;2.00;2.00;;;;;17.16;73.16;100713.16;5032066;28;45273;-63
2022/10/26 05:25:36;;;;;;;;;3.67;3.67;;;;;17.16;73.22;100710.47;5017611;28;45318;-63
2022/10/26 05:28:04;;;;;;;;;4.33;3.00;;;;;17.10;73.17;100711.84;5017991;28;45370;-64
2022/10/26 05:30:30;;;;;;;;;2.00;1.67;;;;;17.12;73.15;100725.13;5017329;28;45493;-63
2022/10/26 05:33:03;;;;;;;;;3.00;1.00;;;;;17.13;73.55;100732.22;5022348;28;45453;-66
2022/10/26 05:35:29;;;;;;;;;2.33;2.33;;;;;17.01;73.43;100718.81;5024416;28;45466;-63
2022/10/26 05:37:55;;;;;;;;;2.00;2.00;;;;;16.92;73.75;100716.84;5015956;28;45498;-64
2022/10/26 05:40:20;;;;;;;;;5.00;3.67;;;;;17.07;73.51;100738.97;5012962;28;46037;-63
2022/10/26 05:42:46;;;;;;;;;2.00;2.00;;;;;17.05;73.74;100741.75;5017458;28;45264;-64
2022/10/26 05:45:12;;;;;;;;;3.67;3.00;;;;;17.06;74.04;100748.00;5016281;28;45354;-63
2022/10/26 05:47:38;;;;;;;;;4.67;4.00;;;;;17.01;74.02;100745.66;5017340;28;45351;-62
2022/10/26 05:50:04;;;;;;;;;1.67;1.67;;;;;17.02;73.89;100752.75;5039000;28;47167;-62
2022/10/26 05:52:29;;;;;;;;;3.67;3.67;;;;;17.02;74.47;100768.00;5026492;28;45269;-65
2022/10/26 05:54:55;;;;;;;;;5.00;4.00;;;;;17.00;74.60;100760.09;5017497;28;45320;-64
2022/10/26 05:57:21;;;;;;;;;2.67;2.67;;;;;17.02;74.49;100763.50;5025036;28;45339;-63
2022/10/26 05:59:46;;;;;;;;;2.33;2.33;;;;;17.00;74.52;100769.97;5017092;28;45426;-63
2022/10/26 06:02:24;;;;;;;;;4.33;3.00;;;;;17.01;74.28;100777.06;5017397;28;45328;-64
2022/10/26 06:04:49;;;;;;;;;2.00;2.00;;;;;16.95;74.46;100764.13;5032012;27;45437;-64
2022/10/26 06:07:19;;;;;;;;;2.00;2.00;;;;;16.97;74.35;100775.59;5024818;28;47032;-65
2022/10/26 06:09:46;;;;;;;;;3.00;3.00;;;;;16.90;74.58;100771.69;5024181;28;45420;-65
2022/10/26 06:12:12;;;;;;;;;2.00;2.00;;;;;16.95;74.50;100773.03;5014003;28;45498;-65
2022/10/26 06:14:38;;;;;;;;;2.33;2.33;;;;;16.93;74.80;100779.53;5007969;28;45396;-61
2022/10/26 06:17:28;;;;;;;;;3.00;1.33;;;;;16.92;74.89;100784.00;5017551;28;45636;-64
2022/10/26 06:20:05;;;;;;;;;4.00;2.33;;;;;16.93;74.51;100790.25;5017530;28;45296;-63
2022/10/26 06:23:08;;;;;;;;;3.00;3.00;;;;;16.89;74.57;100784.25;5018352;28;45381;-62
2022/10/26 06:26:02;;;;;;;;;2.00;2.00;;;;;16.90;74.80;100785.97;5005260;28;45630;-65
2022/10/26 06:28:39;;;;;;;;;4.00;4.00;;;;;16.79;74.98;100780.59;5012108;28;45726;-62
2022/10/26 06:31:05;;;;;;;;;4.00;4.00;;;;;16.89;74.88;100794.16;5026173;28;45530;-62
2022/10/26 06:33:30;;;;;;;;;2.00;2.00;;;;;16.88;74.78;100798.66;5015624;28;45256;-64
2022/10/26 06:36:14;;;;;;;;;4.00;3.33;;;;;16.87;74.70;100812.22;5017402;28;45502;-67
2022/10/26 06:38:43;;;;;;;;;9.33;3.00;;;;;16.85;75.08;100820.41;5017219;28;45217;-63
2022/10/26 06:41:13;;;;;;;;;3.00;3.00;;;;;16.84;74.92;100812.47;5026225;28;46171;-60
2022/10/26 06:43:39;;;;;;;;;4.67;4.67;;;;;16.83;75.07;100808.94;5029361;28;45538;-62
2022/10/26 06:46:40;;;;;;;;;5.00;3.67;;;;;16.82;74.98;100820.66;5018831;28;44741;-61
2022/10/26 06:49:30;;;;;;;;;2.33;2.33;;;;;16.80;74.72;100836.91;5035198;28;45740;-62
2022/10/26 06:52:02;;;;;;;;;8.00;4.33;;;;;16.79;75.00;100839.66;5016202;28;45452;-65
2022/10/26 06:54:53;;;;;;;;;3.00;3.00;;;;;16.78;75.06;100838.81;5031668;28;45542;-65
2022/10/26 06:57:25;;;;;;;;;3.67;3.00;;;;;16.76;75.20;100840.78;5031057;28;45459;-62
2022/10/26 07:00:21;;;;;;;;;3.00;3.00;;;;;16.79;75.31;100853.97;5036149;28;45206;-65
2022/10/26 07:02:49;;;;;;;;;5.00;4.00;;;;;16.80;75.08;100858.38;5030671;28;46366;-61
2022/10/26 07:05:15;;;;;;;;;3.00;3.00;;;;;16.80;75.25;100865.59;5015740;28;45408;-61
2022/10/26 07:07:47;;;;;;;;;5.00;3.00;;;;;16.73;75.22;100859.81;5014360;28;45398;-59
2022/10/26 07:10:14;;;;;;;;;4.00;4.00;;;;;16.81;74.91;100867.28;5016634;28;45379;-60
2022/10/26 07:12:40;;;;;;;;;4.00;4.00;;;;;16.83;75.18;100870.72;5020346;28;46666;-61
2022/10/26 07:15:07;;;;;;;;;2.67;2.67;;;;;16.82;75.00;100873.53;5013747;28;45521;-62
2022/10/26 07:17:43;;;;;;;;;3.33;3.33;;;;;16.81;75.08;100869.97;5013197;28;45562;-60
2022/10/26 07:20:09;;;;;;;;;2.00;2.00;;;;;16.81;75.04;100872.66;5010319;28;45679;-59
2022/10/26 07:22:34;;;;;;;;;2.33;2.33;;;;;16.83;75.20;100884.16;5010896;28;46893;-59
2022/10/26 07:25:00;;;;;;;;;5.67;3.33;;;;;16.87;74.84;100892.81;5027342;28;45261;-59
2022/10/26 07:27:25;;;;;;;;;3.33;3.33;;;;;16.83;75.05;100886.81;5025679;28;45495;-60
2022/10/26 07:29:50;;;;;;;;;3.67;2.33;;;;;16.85;74.88;100895.63;5017988;28;45379;-59
2022/10/26 07:32:16;;;;;;;;;3.00;3.00;;;;;16.84;75.24;100901.97;5032360;28;45487;-59
2022/10/26 07:34:41;;;;;;;;;3.00;3.00;;;;;16.88;74.84;100916.88;5014737;28;45391;-61
2022/10/26 07:37:07;;;;;;;;;4.00;2.67;;;;;16.89;74.89;100915.03;5014678;28;45513;-62
2022/10/26 07:39:32;;;;;;;;;5.00;5.00;;;;;16.89;74.93;100921.25;5007967;28;45555;-62
2022/10/26 07:41:58;;;;;;;;;5.00;5.00;;;;;16.91;74.79;100922.00;5011869;28;45949;-60
2022/10/26 07:44:23;;;;;;;;;5.33;3.67;;;;;16.92;74.92;100923.72;5014524;28;45493;-60
2022/10/26 07:46:48;;;;;;;;;3.00;3.00;;;;;16.91;74.88;100932.75;5011829;28;45434;-59
2022/10/26 07:49:14;;;;;;;;;5.33;4.33;;;;;16.92;75.08;100934.44;5015854;28;45774;-59
2022/10/26 07:51:39;;;;;;;;;5.00;3.00;;;;;16.88;75.17;100922.25;5008705;28;45744;-59
2022/10/26 07:54:05;;;;;;;;;5.67;4.00;;;;;16.93;75.03;100925.44;5014252;28;45466;-60
2022/10/26 07:56:30;;;;;;;;;5.00;4.00;;;;;16.91;74.66;100932.75;5017754;28;45810;-60
2022/10/26 07:58:56;;;;;;;;;6.67;5.00;;;;;16.96;74.97;100935.94;5018436;28;45916;-59
2022/10/26 08:01:22;;;;;;;;;4.00;3.67;;;;;16.99;74.48;100938.38;5011853;28;46194;-59
2022/10/26 08:03:52;;;;;;;;;2.00;2.00;;;;;16.99;74.63;100929.47;5010126;28;45443;-60
2022/10/26 08:06:17;;;;;;;;;3.00;3.00;;;;;16.94;74.74;100943.28;5017020;28;45582;-60
2022/10/26 08:08:42;;;;;;;;;4.67;3.00;;;;;17.01;74.64;100949.00;5017368;28;45409;-60
2022/10/26 08:11:08;;;;;;;;;5.00;4.33;;;;;17.01;74.74;100957.06;5010919;28;46176;-61
2022/10/26 08:13:34;;;;;;;;;6.00;5.00;;;;;17.07;75.11;100967.38;5016398;28;45865;-60
2022/10/26 08:16:02;;;;;;;;;4.00;4.00;;;;;17.09;74.74;100958.22;5007099;28;45471;-59
2022/10/26 08:18:27;;;;;;;;;6.50;5.50;;;;;17.13;74.84;100964.19;5015289;28;45655;-60
2022/10/26 08:20:54;;;;;;;;;4.00;4.00;;;;;17.08;74.35;100961.00;5016584;28;46368;-60
2022/10/26 08:23:21;;;;;;;;;6.00;4.33;;;;;17.15;74.51;100966.75;5016739;28;45380;-61
2022/10/26 08:25:46;;;;;;;;;8.33;6.00;;;;;17.24;74.26;100987.56;5016299;28;45423;-61
2022/10/26 08:28:12;;;;;;;;;6.00;4.33;;;;;17.29;73.96;100979.97;5014167;28;45188;-59
2022/10/26 08:30:38;;;;;;;;;5.33;4.00;;;;;17.35;73.90;100993.81;5019247;28;46308;-61
2022/10/26 08:33:06;;;;;;;;;5.00;4.67;;;;;17.41;73.52;100989.78;5008189;28;45412;-60
2022/10/26 08:35:32;;;;;;;;;4.33;4.00;;;;;17.40;73.55;100988.91;4998682;28;45398;-60
2022/10/26 08:37:58;;;;;;;;;6.00;5.67;;;;;17.49;73.46;100991.88;5015642;28;45447;-60
2022/10/26 08:40:31;;;;;;;;;4.67;4.00;;;;;17.51;73.00;100982.69;5016052;28;45851;-59
2022/10/26 08:43:03;;;;;;;;;7.00;5.33;;;;;17.59;73.02;100984.81;5006205;28;45434;-60
2022/10/26 08:45:37;;;;;;;;;3.67;3.67;;;;;17.67;72.50;100985.88;5001524;28;45483;-61
2022/10/26 08:48:17;;;;;;;;;6.00;4.67;;;;;17.76;72.59;100994.25;5018278;28;45987;-59
2022/10/26 08:50:51;;;;;;;;;6.33;5.00;;;;;17.83;72.11;100990.06;5001979;28;46355;-61
2022/10/26 08:53:32;;;;;;;;;4.33;3.00;;;;;17.85;72.35;100991.69;5015967;28;45501;-59
2022/10/26 08:56:24;;;;;;;;;11.33;3.00;;;;;17.95;71.32;100994.47;5022691;28;45486;-59
2022/10/26 08:59:07;;;;;;;;;3.67;3.67;;;;;18.05;70.99;101006.22;5017900;28;45531;-59
2022/10/26 09:01:33;;;;;;;;;4.67;3.67;;;;;18.13;70.61;101006.47;5005251;28;45364;-62
2022/10/26 09:04:01;;;;;;;;;5.00;4.00;;;;;18.19;70.49;101011.31;5016778;28;45501;-59
2022/10/26 09:06:26;;;;;;;;;5.00;2.00;;;;;18.24;69.67;101014.53;5014266;28;45404;-59
2022/10/26 09:09:02;;;;;;;;;6.33;3.67;;;;;18.31;70.18;101027.47;5017244;28;45390;-62
2022/10/26 09:12:04;;;;;;;;;4.33;4.00;;;;;18.37;70.12;101033.22;4997921;28;45329;-61
2022/10/26 09:14:44;;;;;;;;;5.67;4.00;;;;;18.42;69.65;101031.00;4996529;28;45921;-59
2022/10/26 09:17:37;;;;;;;;;5.33;4.00;;;;;18.46;69.74;101037.84;4998453;28;45422;-60
2022/10/26 09:20:29;;;;;;;;;4.00;3.00;;;;;18.47;69.69;101033.31;5016706;28;45696;-59
2022/10/26 09:23:33;;;;;;;;;2.00;2.00;;;;;18.58;69.34;101047.59;5016434;28;46489;-60
2022/10/26 09:26:01;;;;;;;;;3.67;3.67;;;;;18.65;69.02;101048.00;4997607;28;45378;-61
2022/10/26 09:28:33;;;;;;;;;6.33;6.00;;;;;18.68;68.93;101042.34;5003268;28;45335;-61
2022/10/26 09:31:00;;;;;;;;;5.00;3.00;;;;;18.77;68.51;101036.22;5004075;28;45538;-62
2022/10/26 09:33:30;;;;;;;;;3.67;3.67;;;;;18.80;68.48;101030.56;5008499;28;45737;-59
2022/10/26 09:36:02;;;;;;;;;5.00;3.67;;;;;18.87;67.83;101038.97;5008359;28;45415;-61
2022/10/26 09:38:44;;;;;;;;;5.33;3.00;;;;;18.98;67.92;101043.47;4997287;28;45360;-61
2022/10/26 09:41:34;;;;;;;;;4.67;1.33;;;;;19.06;67.28;101051.78;5006595;28;45272;-61
2022/10/26 09:44:08;;;;;;;;;3.00;1.00;;;;;19.11;66.48;101053.06;5001892;28;46317;-59
2022/10/26 09:46:50;;;;;;;;;3.33;3.33;;;;;19.20;66.23;101054.16;5014844;28;45618;-61
2022/10/26 09:49:20;;;;;;;;;3.25;1.00;;;;;19.26;65.95;101061.69;5002486;28;45466;-60
2022/10/26 09:51:47;;;;;;;;;4.00;2.25;;;;;19.29;65.51;101039.03;5012824;28;45502;-60
2022/10/26 09:54:18;;;;;;;;;3.75;2.00;;;;;19.47;65.10;101047.38;5007775;28;45501;-59
2022/10/26 09:56:50;;;;;;;;;2.00;2.00;;;;;19.49;64.62;101048.09;5007088;28;45515;-62
2022/10/26 09:59:19;;;;;;;;;3.00;1.50;;;;;19.59;64.03;101059.84;5009371;28;45629;-63
2022/10/26 10:01:44;;;;;;;;;2.25;0.75;;;;;19.69;64.17;101061.63;5007983;28;45419;-62
2022/10/26 10:04:10;;;;;;;;;1.00;1.00;;;;;19.78;63.95;101062.66;5014441;28;46051;-65
2022/10/26 10:06:36;;;;;;;;;1.50;1.50;;;;;19.86;62.65;101073.63;5007359;28;45506;-66
2022/10/26 10:09:23;;;;;;;;;1.00;1.00;;;;;19.92;63.13;101070.41;5012355;28;45454;-61
2022/10/26 10:12:00;;;;;;;;;3.00;1.25;;;;;20.03;63.05;101081.09;5015794;28;45695;-61
2022/10/26 10:14:52;;;;;;;;;1.50;1.50;;;;;20.08;62.80;101078.00;5011029;28;45290;-63
2022/10/26 10:17:22;;;;;;;;;1.00;1.00;;;;;20.02;62.76;101062.34;5009023;28;45344;-60
2022/10/26 10:19:48;;;;;;;;;4.75;1.00;;;;;20.22;62.34;101084.91;5018236;28;45392;-64
2022/10/26 10:22:23;;;;;;;;;3.00;1.25;;;;;20.31;61.72;101100.25;5042211;28;45901;-61
2022/10/26 10:24:57;;;;;;;;;3.00;2.00;;;;;20.39;62.01;101105.84;5017122;27;45522;-61
2022/10/26 10:27:24;;;;;;;;;3.00;3.00;;;;;20.49;62.27;101109.47;5000095;28;45400;-62
2022/10/26 10:29:57;;;;;;;;;2.00;1.00;;;;;20.51;60.85;101107.50;5009151;28;45991;-63
2022/10/26 10:32:30;;;;;;;;;1.75;1.75;;;;;20.55;61.07;101106.22;5003824;28;45657;-61
2022/10/26 10:34:58;;;;;;;;;2.75;2.00;;;;;20.65;61.27;101113.50;5004556;28;46331;-61
2022/10/26 10:37:33;;;;;;;;;2.00;2.00;;;;;20.77;61.05;101123.19;5010692;28;45466;-66
2022/10/26 10:40:03;;;;;;;;;3.00;1.75;;;;;20.88;61.05;101121.25;5010063;28;45521;-67
2022/10/26 10:42:38;;;;;;;;;1.50;1.50;;;;;20.99;59.89;101117.56;5015700;28;45483;-69
2022/10/26 10:45:06;;;;;;;;;3.25;1.75;;;;;21.06;59.79;101112.44;5000670;28;45375;-65
2022/10/26 10:47:34;;;;;;;;;3.00;1.00;;;;;21.19;59.57;101113.00;5018710;28;45509;-59
2022/10/26 10:50:06;;;;;;;;;2.25;2.25;;;;;21.31;59.51;101113.75;5008841;28;45423;-58
2022/10/26 10:52:34;;;;;;;;;2.00;2.00;;;;;21.40;59.31;101119.16;5009133;28;45419;-64
2022/10/26 10:55:17;;;;;;;;;2.00;2.00;;;;;21.57;59.09;101119.44;5005411;28;45550;-63
2022/10/26 10:57:48;;;;;;;;;8.50;2.00;;;;;21.70;59.26;101123.53;5009998;28;45328;-65
2022/10/26 11:00:16;;;;;;;;;2.25;2.25;;;;;21.77;58.61;101113.00;5008220;28;45355;-65
2022/10/26 11:03:29;;;;;;;;;2.00;2.00;;;;;21.87;57.79;101119.22;5022901;28;45477;-67
2022/10/26 11:06:15;;;;;;;;;7.50;2.00;;;;;21.94;58.18;101119.50;4998461;28;46304;-68
2022/10/26 11:08:46;;;;;;;;;4.00;2.40;;;;;22.05;58.28;101130.19;4995839;28;45363;-69
2022/10/26 11:11:20;;;;;;;;;3.20;2.20;;;;;22.20;57.18;101130.59;5002507;28;45447;-61
2022/10/26 11:14:07;;;;;;;;;2.50;2.00;;;;;22.18;55.81;101128.03;5005586;28;45764;-63
2022/10/26 11:16:37;;;;;;;;;0.50;0.50;;;;;22.17;57.05;101118.19;5012064;28;46092;-63
2022/10/26 11:19:27;;;;;;;;;2.60;1.40;;;;;22.43;57.04;101131.06;5008635;28;45368;-65
2022/10/26 11:21:55;;;;;;;;;2.75;2.25;;;;;22.52;55.65;101132.88;4995426;28;45413;-65
2022/10/26 11:24:53;;;;;;;;;2.75;2.75;;;;;22.58;56.31;101140.41;4998654;28;45356;-69
2022/10/26 11:27:24;;;;;;;;;1.50;1.00;;;;;22.66;54.58;101127.81;5007120;28;45513;-61
2022/10/26 11:30:01;;;;;;;;;2.00;2.00;;;;;22.70;55.78;101122.94;4958489;28;1122794;-65
2022/10/26 11:32:45;;;;;;;;;3.00;1.20;;;;;22.83;55.19;101134.31;5013682;28;45340;-66
2022/10/26 11:35:25;;;;;;;;;2.25;2.25;;;;;22.84;55.31;101127.88;5014095;28;45713;-61
2022/10/26 11:38:00;;;;;;;;;3.80;2.60;;;;;22.95;54.92;101141.22;5007223;28;45434;-63
2022/10/26 11:40:43;;;;;;;;;2.00;1.00;;;;;22.82;54.44;101129.00;5016071;28;45547;-60
2022/10/26 11:43:21;;;;;;;;;3.00;2.60;;;;;22.92;54.86;101138.84;5008551;28;45564;-61